Agnew, NE

10:01 PM CDT on May 04, 2015 (GMT -0500)
Raymond, NE | | Change Station
CLOSE
Current Station
Personal Weather Station
Location: Raymond, NE
Elevation: 1309 ft
Nearby Weather Stations

Elev 1309 ft 40.98 °N, 96.78 °W | Updated 1 minute ago

Overcast
Overcast
57.7 °F
Feels Like 57.7 °F
N
5.0
Wind Variable Wind from ENE
Gusts 10.0 mph

Today
High -- | Low -- °F
--% Chance of Precip.
Yesterday
High -- | Low -- °F
Precip. -- in
6:21 AM 8:26 PM
Full, 99% visible
Pressure 30.03 in
Visibility 6.0 miles
Clouds Overcast 900 ft
Dew Point 57 °F
Humidity 96%
Rainfall 0.22 in
Snow Depth Not available.
UV 0 out of 12
Pollen 4.30 out of 12
Air Quality Not available.
Flu Activity Local Activity
METAR KLNK 050154Z 05009KT 6SM BR OVC009 15/13 A3004 RMK AO2 SLP168 T01500133

More Conditions Fewer Conditions

Pressure 30.03 in
Visibility 6.0 miles
Clouds Overcast 900 ft
Dew Point 57 °F
Humidity 96%
Rainfall 0.22 in
Snow Depth Not available.
UV 0 out of 12
Pollen 4.30 out of 12
Air Quality Not available.
Flu Activity Local Activity
METAR KLNK 050154Z 05009KT 6SM BR OVC009 15/13 A3004 RMK AO2 SLP168 T01500133

More Conditions Fewer Conditions

Nepal has a long way to go to dig out and rebuild from a devastating earthquake. We have teamed up with several charities and organizations to make contributing to the relief effort as easy as possible.
How you can help: Portlight Strategies | Red Cross

10-Day Weather Forecast

Almanac

Astronomy

May. 04, 2015 Rise Set
Actual Time
Civil Twilight
Nautical Twilight
Astronomical Twilight
Moon
Length of Visible Light
Length of Day
Tomorrow will be .
, % of the Moon is Illuminated

Today's Extremes

State Highs State Lows

Community

WunderPhotos

Upload Photos

1,818,804 photos uploaded!

WunderBlogs® & News

Nearby

Air Quality

  Air Quality AQ Index Pollutant
Not available.

Snow Depth

Station Depth Elevation

Earthquake Activity

City Distance Mag. Time & Date
Minimum magnitude displayed is 2.5.

Coastal Water Temperatures

Place Temperature

Stations

Nearby Weather Stations

Station Location Temp. Windchill Dew Point Humidity Wind Precip. Elev Updated Type